Аэропорт: Пулково. Санкт-Петербург

ICAO: ULLI

METAR:
2018/11/19 10:00
ULLI 191000Z 06004MPS 030V090 9999 OVC022 00/M04 Q1038 R88/290050 NOSIG
METAR:
2018/11/19 09:22
TAF ULLI 190759Z 1909/2009 05003MPS 6000 BKN011 BKN020 
      TEMPO 1909/1918 03005MPS 3100 -SHSNRA BKN007 BKN015CB 
      TEMPO 1918/1921 VRB01MPS 
      BECMG 1921/1923 26003MPS 
      TEMPO 1921/2006 3100 BR 
      TEMPO 2006/2009 27003G08MPS